createdAt,value
2023-04-05T00:04:58.455Z,-2.34
2023-04-05T00:10:04.367Z,-2.42
2023-04-05T00:15:11.333Z,-2.51
2023-04-05T00:20:17.061Z,-2.62
2023-04-05T00:25:22.686Z,-2.74
2023-04-05T00:30:29.250Z,-2.87
2023-04-05T00:35:34.847Z,-3.00
2023-04-05T00:40:40.654Z,-3.12
2023-04-05T00:45:47.146Z,-3.26
2023-04-05T00:50:53.062Z,-3.39
2023-04-05T00:56:01.386Z,-3.49
2023-04-05T01:01:16.846Z,-3.58
2023-04-05T01:06:37.722Z,-3.68
2023-04-05T01:11:46.220Z,-3.76
2023-04-05T01:16:58.085Z,-3.72
2023-04-05T01:22:38.161Z,-3.62
2023-04-05T01:28:11.099Z,-3.55
2023-04-05T01:33:25.475Z,-3.48
2023-04-05T01:38:32.076Z,-3.51
2023-04-05T01:43:37.747Z,-3.60
2023-04-05T01:48:43.217Z,-3.68
2023-04-05T01:53:49.254Z,-3.79
2023-04-05T01:58:54.926Z,-3.87
2023-04-05T02:04:00.669Z,-3.95
2023-04-05T02:09:06.343Z,-4.03
2023-04-05T02:14:12.504Z,-4.13
2023-04-05T02:19:23.163Z,-4.21
2023-04-05T02:24:29.348Z,-4.30
2023-04-05T02:29:35.000Z,-4.30
2023-04-05T02:34:41.320Z,-4.22
2023-04-05T02:39:46.942Z,-4.13
2023-04-05T02:44:53.175Z,-4.04
2023-04-05T02:49:59.443Z,-4.04
2023-04-05T02:55:08.279Z,-4.15
2023-04-05T03:00:16.748Z,-4.29
2023-04-05T03:05:22.733Z,-4.39
2023-04-05T03:10:35.012Z,-4.45
2023-04-05T03:15:46.006Z,-4.51
2023-04-05T03:20:59.673Z,-4.63
2023-04-05T03:26:06.483Z,-4.69
2023-04-05T03:31:14.977Z,-4.55
2023-04-05T03:36:21.765Z,-4.27
2023-04-05T03:41:30.872Z,-3.95
2023-04-05T03:46:38.155Z,-3.76
2023-04-05T03:51:45.336Z,-3.62
2023-04-05T03:56:52.076Z,-3.50
2023-04-05T04:01:58.118Z,-3.42
2023-04-05T04:07:04.341Z,-3.29
2023-04-05T04:12:11.514Z,-3.11
2023-04-05T04:17:31.833Z,-2.97
2023-04-05T04:22:56.261Z,-2.83
2023-04-05T04:28:34.967Z,-2.74
2023-04-05T04:33:55.529Z,-2.67
2023-04-05T04:39:18.649Z,-2.51
2023-04-05T04:44:54.602Z,-2.28
2023-04-05T04:50:27.033Z,-2.10
2023-04-05T04:55:36.510Z,-1.96
2023-04-05T05:00:44.462Z,-1.87
2023-04-05T05:05:53.710Z,-1.78
2023-04-05T05:11:06.436Z,-1.58
2023-04-05T05:16:11.895Z,-1.40
2023-04-05T05:21:17.949Z,-1.23
2023-04-05T05:26:30.222Z,-1.14
2023-04-05T05:31:36.660Z,-1.04
2023-04-05T05:36:43.161Z,-0.86
2023-04-05T05:41:49.161Z,-0.67
2023-04-05T05:46:54.964Z,-0.54
2023-04-05T05:52:00.781Z,-0.42
2023-04-05T05:57:06.854Z,-0.30
2023-04-05T06:02:13.240Z,-0.13
2023-04-05T06:07:18.995Z,0.04
2023-04-05T06:12:26.042Z,0.18
2023-04-05T06:17:34.542Z,0.32
2023-04-05T06:22:41.263Z,0.43
2023-04-05T06:27:46.998Z,0.52
2023-04-05T06:32:54.888Z,0.63
2023-04-05T06:38:00.661Z,0.75
2023-04-05T06:43:06.414Z,0.84
2023-04-05T06:48:12.647Z,0.88
2023-04-05T06:53:19.728Z,0.93
2023-04-05T06:58:26.633Z,0.97
2023-04-05T07:03:32.892Z,1.02
2023-04-05T07:08:38.796Z,1.10
2023-04-05T07:13:44.240Z,1.22
2023-04-05T07:18:49.984Z,1.38
2023-04-05T07:23:58.293Z,1.51
2023-04-05T07:29:04.955Z,1.50
2023-04-05T07:34:10.734Z,1.51
2023-04-05T07:39:16.616Z,1.48
2023-04-05T07:44:22.356Z,1.58
2023-04-05T07:49:28.504Z,1.59
2023-04-05T07:54:34.309Z,1.76
2023-04-05T07:59:40.028Z,2.02
2023-04-05T08:04:45.995Z,2.24
2023-04-05T08:09:51.575Z,2.41
2023-04-05T08:14:57.399Z,2.55
2023-04-05T08:20:04.192Z,2.57
2023-04-05T08:25:11.006Z,2.66
2023-04-05T08:30:16.966Z,2.83
2023-04-05T08:35:22.844Z,2.95
2023-04-05T08:40:44.791Z,3.00
2023-04-05T08:45:51.766Z,3.15
2023-04-05T08:50:57.395Z,3.32
2023-04-05T08:56:04.325Z,3.38
2023-04-05T09:01:11.901Z,3.40
2023-04-05T09:06:18.539Z,3.47
2023-04-05T09:11:24.525Z,3.61
2023-04-05T09:16:31.408Z,3.60
2023-04-05T09:22:01.087Z,3.61
2023-04-05T09:27:09.877Z,3.69
2023-04-05T09:32:19.509Z,3.85
2023-04-05T09:37:25.230Z,4.05
2023-04-05T09:42:43.805Z,4.20
2023-04-05T09:47:57.839Z,4.60
2023-04-05T09:53:16.075Z,4.84
2023-04-05T09:58:22.857Z,5.10
2023-04-05T10:03:30.101Z,6.71
2023-04-05T10:08:36.189Z,8.73
2023-04-05T10:13:42.257Z,8.75
2023-04-05T10:18:52.005Z,8.31
2023-04-05T10:24:10.688Z,7.61
2023-04-05T10:29:26.046Z,6.81
2023-04-05T10:34:40.554Z,6.23
2023-04-05T10:39:47.453Z,5.89
2023-04-05T10:45:04.593Z,5.59
2023-04-05T10:50:17.742Z,5.35
2023-04-05T10:55:23.694Z,5.39
2023-04-05T11:00:29.890Z,5.34
2023-04-05T11:05:37.508Z,5.42
2023-04-05T11:10:52.493Z,5.46
2023-04-05T11:16:11.413Z,5.40
2023-04-05T11:21:25.073Z,5.44
2023-04-05T11:26:52.982Z,5.45
2023-04-05T11:32:06.846Z,5.25
2023-04-05T11:37:15.748Z,5.20
2023-04-05T11:42:21.987Z,5.12
2023-04-05T11:47:28.793Z,5.17
2023-04-05T11:52:34.614Z,5.27
2023-04-05T11:57:40.164Z,5.39
2023-04-05T12:02:46.197Z,5.33
2023-04-05T12:07:55.709Z,5.69
2023-04-05T12:13:01.591Z,6.00
2023-04-05T12:18:15.137Z,6.00
2023-04-05T12:23:21.569Z,6.48
2023-04-05T12:28:49.297Z,6.88
2023-04-05T12:34:00.800Z,7.15
2023-04-05T12:39:10.166Z,7.11
2023-04-05T12:44:28.339Z,6.84
2023-04-05T12:49:37.615Z,6.76
2023-04-05T12:54:53.197Z,6.78
2023-04-05T12:59:59.047Z,7.11
2023-04-05T13:05:04.818Z,7.40
2023-04-05T13:10:11.933Z,7.15
2023-04-05T13:15:18.522Z,6.87
2023-04-05T13:20:24.186Z,6.41
2023-04-05T13:25:30.128Z,5.89
2023-04-05T13:30:35.715Z,5.57
2023-04-05T13:35:41.828Z,5.20
2023-04-05T13:40:47.904Z,5.03
2023-04-05T13:45:53.420Z,4.92
2023-04-05T13:50:58.869Z,4.82
2023-04-05T13:56:04.608Z,4.85
2023-04-05T14:01:10.955Z,4.90
2023-04-05T14:06:17.183Z,4.87
2023-04-05T14:11:22.838Z,4.79
2023-04-05T14:16:28.617Z,4.77
2023-04-05T14:21:34.491Z,4.61
2023-04-05T14:26:41.042Z,4.33
2023-04-05T14:31:46.874Z,4.19
2023-04-05T14:36:52.511Z,4.08
2023-04-05T14:41:58.115Z,4.12
2023-04-05T14:47:03.534Z,4.17
2023-04-05T14:52:09.019Z,4.30
2023-04-05T14:57:14.659Z,4.37
2023-04-05T15:02:20.301Z,4.37
2023-04-05T15:07:26.612Z,4.42
2023-04-05T15:12:33.328Z,4.44
2023-04-05T15:17:39.057Z,4.31
2023-04-05T15:22:44.720Z,4.17
2023-04-05T15:27:51.257Z,4.10
2023-04-05T15:32:57.260Z,3.92
2023-04-05T15:38:03.505Z,3.72
2023-04-05T15:43:09.545Z,3.53
2023-04-05T15:48:15.467Z,3.40
2023-04-05T15:53:21.154Z,3.28
2023-04-05T15:58:27.268Z,3.17
2023-04-05T16:03:34.183Z,3.11
2023-04-05T16:08:39.917Z,3.12
2023-04-05T16:13:45.674Z,3.08
2023-04-05T16:18:51.414Z,3.04
2023-04-05T16:23:57.144Z,2.99
2023-04-05T16:29:02.859Z,2.96
2023-04-05T16:34:09.190Z,2.93
2023-04-05T16:39:14.701Z,2.82
2023-04-05T16:44:20.475Z,2.75
2023-04-05T16:49:26.242Z,2.64
2023-04-05T16:54:32.269Z,2.53
2023-04-05T16:59:38.017Z,2.45
2023-04-05T17:04:43.537Z,2.36
2023-04-05T17:09:49.788Z,2.29
2023-04-05T17:14:55.964Z,2.24
2023-04-05T17:20:01.663Z,2.14
2023-04-05T17:25:08.533Z,2.05
2023-04-05T17:30:15.767Z,1.98
2023-04-05T17:35:21.461Z,1.93
2023-04-05T17:40:27.078Z,1.86
2023-04-05T17:45:32.609Z,1.80
2023-04-05T17:50:38.554Z,1.76
2023-04-05T17:55:44.269Z,1.74
2023-04-05T18:00:54.401Z,1.72
2023-04-05T18:06:00.015Z,1.69
2023-04-05T18:11:05.954Z,1.69
2023-04-05T18:16:12.436Z,1.68
2023-04-05T18:21:18.354Z,1.65
2023-04-05T18:26:24.272Z,1.61
2023-04-05T18:31:31.039Z,1.56
2023-04-05T18:36:39.700Z,1.54
2023-04-05T18:41:45.269Z,1.52
2023-04-05T18:46:50.896Z,1.51
2023-04-05T18:51:56.981Z,1.48
2023-04-05T18:57:02.477Z,1.46
2023-04-05T19:02:08.438Z,1.46
2023-04-05T19:07:14.494Z,1.47
2023-04-05T19:12:19.961Z,1.49
2023-04-05T19:17:25.687Z,1.49
2023-04-05T19:22:31.591Z,1.48
2023-04-05T19:27:37.787Z,1.48
2023-04-05T19:32:43.434Z,1.51
2023-04-05T19:37:49.375Z,1.52
2023-04-05T19:42:56.879Z,1.51
2023-04-05T19:48:07.816Z,1.52
2023-04-05T19:53:37.681Z,1.51
2023-04-05T19:58:43.973Z,1.51
2023-04-05T20:03:50.177Z,1.51
2023-04-05T20:09:01.722Z,1.52
2023-04-05T20:14:10.247Z,1.52
2023-04-05T20:19:16.460Z,1.50
2023-04-05T20:24:23.803Z,1.48
2023-04-05T20:29:33.460Z,1.47
2023-04-05T20:34:39.829Z,1.46
2023-04-05T20:39:45.711Z,1.46
2023-04-05T20:44:51.297Z,1.49
2023-04-05T20:49:56.957Z,1.51
2023-04-05T20:55:02.728Z,1.50
2023-04-05T21:00:11.853Z,1.52
2023-04-05T21:05:17.416Z,1.51
2023-04-05T21:10:23.101Z,1.49
2023-04-05T21:15:31.395Z,1.48
2023-04-05T21:20:37.350Z,1.48
2023-04-05T21:25:43.332Z,1.47
2023-04-05T21:30:49.169Z,1.47
2023-04-05T21:35:54.753Z,1.45
2023-04-05T21:41:00.633Z,1.44
2023-04-05T21:46:06.980Z,1.39
2023-04-05T21:51:12.961Z,1.37
2023-04-05T21:56:19.195Z,1.33
2023-04-05T22:01:25.009Z,1.27
2023-04-05T22:06:31.084Z,1.21
2023-04-05T22:11:36.870Z,1.18
2023-04-05T22:16:42.736Z,1.16
2023-04-05T22:21:48.305Z,1.18
2023-04-05T22:26:56.461Z,1.24
2023-04-05T22:32:02.337Z,1.27
2023-04-05T22:37:08.007Z,1.28
2023-04-05T22:42:13.556Z,1.30
2023-04-05T22:47:19.136Z,1.31
2023-04-05T22:52:24.941Z,1.29
2023-04-05T22:57:31.211Z,1.28
2023-04-05T23:02:36.880Z,1.26
2023-04-05T23:07:42.844Z,1.24
2023-04-05T23:12:48.816Z,1.21
2023-04-05T23:17:54.451Z,1.18
2023-04-05T23:23:00.237Z,1.18
2023-04-05T23:28:06.485Z,1.17
2023-04-05T23:33:12.785Z,1.15
2023-04-05T23:38:19.161Z,1.11
2023-04-05T23:43:25.384Z,1.06
2023-04-05T23:57:02.046Z,1.02
